Time;durP1;ratioP1;P1;durP2;ratioP2;P2;SDS_P1;SDS_P2;PMS_P1;PMS_P2;Temp;Humidity;BMP_temperature;BMP_pressure;BME280_temperature;BME280_humidity;BME280_pressure;Samples;Min_cycle;Max_cycle;Signal;HPM_P1;HPM_P2
2022/07/19 00:02:18;;;;;;;;;;;;;;;;;;2211104;67;1281;-72
2022/07/19 00:04:51;;;;;;;;;;;;;;;;;;2210799;59;1228;-73
2022/07/19 00:07:24;;;;;;;;;;;;;;;;;;2211497;67;1282;-73
2022/07/19 00:09:57;;;;;;;;;;;;;;;;;;2210992;67;1157;-73
2022/07/19 00:12:30;;;;;;;;;;;;;;;;;;2210634;59;1354;-73
2022/07/19 00:15:03;;;;;;;;;;;;;;;;;;2210978;67;1994;-73
2022/07/19 00:17:40;;;;;;;;;;;;;;;;;;2210260;67;1212;-73
2022/07/19 00:20:15;;;;;;;;;;;;;;;;;;2210998;59;1922;-73
2022/07/19 00:22:48;;;;;;;;;;;;;;;;;;2210700;67;1017;-73
2022/07/19 00:25:21;;;;;;;;;;;;;;;;;;2210771;67;1264;-73
2022/07/19 00:27:54;;;;;;;;;;;;;;;;;;2210628;67;1188;-73
2022/07/19 00:30:27;;;;;;;;;;;;;;;;;;2210514;67;1278;-72
2022/07/19 00:33:04;;;;;;;;;;;;;;;;;;2210642;67;1235;-72
2022/07/19 00:35:37;;;;;;;;;;;;;;;;;;2211237;59;1971;-72
2022/07/19 00:38:11;;;;;;;;;;;;;;;;;;2210311;59;1267;-73
2022/07/19 00:40:45;;;;;;;;;;;;;;;;;;2210376;67;1242;-72
2022/07/19 00:43:18;;;;;;;;;;;;;;;;;;2210946;67;1208;-73
2022/07/19 00:45:51;;;;;;;;;;;;;;;;;;2210916;67;1170;-72
2022/07/19 00:48:27;;;;;;;;;;;;;;;;;;2210465;67;1162;-72
2022/07/19 00:51:00;;;;;;;;;;;;;;;;;;2210603;59;1267;-73
2022/07/19 00:53:34;;;;;;;;;;;;;;;;;;2210571;59;1912;-72
2022/07/19 00:56:07;;;;;;;;;;;;;;;;;;2210762;67;1079;-72
2022/07/19 00:58:41;;;;;;;;;;;;;;;;;;2210778;67;1080;-72
2022/07/19 01:01:14;;;;;;;;;;;;;;;;;;2210414;67;1295;-72
2022/07/19 01:03:50;;;;;;;;;;;;;;;;;;2210129;59;1364;-72
2022/07/19 01:06:24;;;;;;;;;;;;;;;;;;2211307;59;1236;-73
2022/07/19 01:08:57;;;;;;;;;;;;;;;;;;2212011;60;1149;-73
2022/07/19 01:11:30;;;;;;;;;;;;;;;;;;2210182;59;1438;-72
2022/07/19 01:14:03;;;;;;;;;;;;;;;;;;2211373;67;1988;-73
2022/07/19 01:16:36;;;;;;;;;;;;;;;;;;2210005;59;1178;-72
2022/07/19 01:19:13;;;;;;;;;;;;;;;;;;2210309;59;1905;-72
2022/07/19 01:21:49;;;;;;;;;;;;;;;;;;2210337;67;1252;-72
2022/07/19 01:24:22;;;;;;;;;;;;;;;;;;2209873;67;1125;-72
2022/07/19 01:26:55;;;;;;;;;;;;;;;;;;2209657;67;1073;-72
2022/07/19 01:29:28;;;;;;;;;;;;;;;;;;2210357;67;1220;-72
2022/07/19 01:32:01;;;;;;;;;;;;;;;;;;2210291;59;1159;-72
2022/07/19 01:34:35;;;;;;;;;;;;;;;;;;2210465;67;1988;-72
2022/07/19 01:37:11;;;;;;;;;;;;;;;;;;2209580;59;1161;-72
2022/07/19 01:39:44;;;;;;;;;;;;;;;;;;2209832;59;1088;-72
2022/07/19 01:42:17;;;;;;;;;;;;;;;;;;2211004;59;1287;-72
2022/07/19 01:44:50;;;;;;;;;;;;;;;;;;2210008;67;1263;-72
2022/07/19 01:47:23;;;;;;;;;;;;;;;;;;2210913;59;1254;-72
2022/07/19 01:49:56;;;;;;;;;;;;;;;;;;2210428;67;1283;-72
2022/07/19 01:52:32;;;;;;;;;;;;;;;;;;2210788;67;1183;-73
2022/07/19 01:55:05;;;;;;;;;;;;;;;;;;2210740;67;1971;-73
2022/07/19 01:57:39;;;;;;;;;;;;;;;;;;2206776;67;1204;-72
2022/07/19 02:00:12;;;;;;;;;;;;;;;;;;2209588;67;1306;-72
2022/07/19 02:02:45;;;;;;;;;;;;;;;;;;2210570;59;1307;-72
2022/07/19 02:05:18;;;;;;;;;;;;;;;;;;2210674;67;1275;-72
2022/07/19 02:07:54;;;;;;;;;;;;;;;;;;2210807;67;1097;-72
2022/07/19 02:13:00;;;;;;;;;;;;;;;;;;2207410;59;1278;-53
2022/07/19 02:15:33;;;;;;;;;;;;;;;;;;2208534;67;1923;-53
2022/07/19 02:18:06;;;;;;;;;;;;;;;;;;2207161;67;1242;-53
2022/07/19 02:20:39;;;;;;;;;;;;;;;;;;2206341;59;1932;-54
2022/07/19 02:23:15;;;;;;;;;;;;;;;;;;2206201;67;1178;-53
2022/07/19 02:25:48;;;;;;;;;;;;;;;;;;2207508;67;1101;-56
2022/07/19 02:28:21;;;;;;;;;;;;;;;;;;2207583;67;1257;-54
2022/07/19 02:30:55;;;;;;;;;;;;;;;;;;2207286;67;1096;-54
2022/07/19 02:33:28;;;;;;;;;;;;;;;;;;2207528;67;1232;-54
2022/07/19 02:36:01;;;;;;;;;;;;;;;;;;2206705;59;2000;-54
2022/07/19 02:38:37;;;;;;;;;;;;;;;;;;2207446;59;1345;-53
2022/07/19 02:41:10;;;;;;;;;;;;;;;;;;2207418;67;1172;-54
2022/07/19 02:43:43;;;;;;;;;;;;;;;;;;2207668;67;1148;-54
2022/07/19 02:46:17;;;;;;;;;;;;;;;;;;2207826;67;1251;-54
2022/07/19 02:48:50;;;;;;;;;;;;;;;;;;2207889;67;1223;-53
2022/07/19 02:51:23;;;;;;;;;;;;;;;;;;2206963;67;1243;-55
2022/07/19 02:53:59;;;;;;;;;;;;;;;;;;2207308;67;1184;-53
2022/07/19 02:56:32;;;;;;;;;;;;;;;;;;2207891;67;1267;-53
2022/07/19 02:59:05;;;;;;;;;;;;;;;;;;2206996;67;1188;-57
2022/07/19 03:01:39;;;;;;;;;;;;;;;;;;2207509;67;1210;-54
2022/07/19 03:04:12;;;;;;;;;;;;;;;;;;2206734;59;2477;-55
2022/07/19 03:06:45;;;;;;;;;;;;;;;;;;2206580;59;1214;-55
2022/07/19 03:09:21;;;;;;;;;;;;;;;;;;2207794;67;1216;-53
2022/07/19 03:11:55;;;;;;;;;;;;;;;;;;2204405;59;2129;-54
2022/07/19 03:14:28;;;;;;;;;;;;;;;;;;2207599;67;1972;-53
2022/07/19 03:17:01;;;;;;;;;;;;;;;;;;2207212;59;1156;-53
2022/07/19 03:19:35;;;;;;;;;;;;;;;;;;2207452;59;1982;-52
2022/07/19 03:22:08;;;;;;;;;;;;;;;;;;2207561;59;1449;-53
2022/07/19 03:24:44;;;;;;;;;;;;;;;;;;2207472;67;1288;-53
2022/07/19 03:27:17;;;;;;;;;;;;;;;;;;2207491;67;1300;-54
2022/07/19 03:29:50;;;;;;;;;;;;;;;;;;2207016;67;1046;-54
2022/07/19 03:32:23;;;;;;;;;;;;;;;;;;2207375;67;1263;-55
2022/07/19 03:34:56;;;;;;;;;;;;;;;;;;2207891;67;1932;-54
2022/07/19 03:37:30;;;;;;;;;;;;;;;;;;2207468;67;1320;-53
2022/07/19 03:40:06;;;;;;;;;;;;;;;;;;2206926;67;1054;-53
2022/07/19 03:42:39;;;;;;;;;;;;;;;;;;2207323;67;1223;-54
2022/07/19 03:45:12;;;;;;;;;;;;;;;;;;2207583;67;1117;-55
2022/07/19 03:47:46;;;;;;;;;;;;;;;;;;2206515;67;1276;-54
2022/07/19 03:50:19;;;;;;;;;;;;;;;;;;2207547;67;1133;-53
2022/07/19 03:52:52;;;;;;;;;;;;;;;;;;2207059;67;1294;-54
2022/07/19 03:58:48;;;;;;;;;;;;;;;;;;2207177;67;1163;-53
2022/07/19 04:01:21;;;;;;;;;;;;;;;;;;2206976;59;1231;-55
2022/07/19 04:03:54;;;;;;;;;;;;;;;;;;2203434;67;1159;-53
2022/07/19 04:06:27;;;;;;;;;;;;;;;;;;2206853;67;1231;-53
2022/07/19 04:09:00;;;;;;;;;;;;;;;;;;2206426;67;1224;-53
2022/07/19 04:11:33;;;;;;;;;;;;;;;;;;2206886;59;1280;-53
2022/07/19 04:14:18;;;;;;;;;;;;;;;;;;2210427;67;1156;-54
2022/07/19 04:16:52;;;;;;;;;;;;;;;;;;2206845;59;1948;-53
2022/07/19 04:19:26;;;;;;;;;;;;;;;;;;2206911;59;2670;-54
2022/07/19 04:21:59;;;;;;;;;;;;;;;;;;2206356;67;1166;-54
2022/07/19 04:28:01;;;;;;;;;;;;;;;;;;2206885;59;1214;-53
2022/07/19 04:30:37;;;;;;;;;;;;;;;;;;2207145;67;1299;-57
2022/07/19 04:33:10;;;;;;;;;;;;;;;;;;2206560;67;1097;-53
2022/07/19 04:35:44;;;;;;;;;;;;;;;;;;2207168;67;1982;-56
2022/07/19 04:38:17;;;;;;;;;;;;;;;;;;2207016;59;1217;-56
2022/07/19 04:40:51;;;;;;;;;;;;;;;;;;2210219;67;1226;-55
2022/07/19 04:43:24;;;;;;;;;;;;;;;;;;2206579;67;1190;-54
2022/07/19 04:46:00;;;;;;;;;;;;;;;;;;2208251;53;2145;-76
2022/07/19 04:48:33;;;;;;;;;;;;;;;;;;2205972;59;1193;-76
2022/07/19 04:51:06;;;;;;;;;;;;;;;;;;2206005;59;1224;-76
2022/07/19 04:53:39;;;;;;;;;;;;;;;;;;2209759;67;1213;-76
2022/07/19 04:56:12;;;;;;;;;;;;;;;;;;2208667;59;2399;-76
2022/07/19 04:58:46;;;;;;;;;;;;;;;;;;2208111;59;2358;-77
2022/07/19 05:01:30;;;;;;;;;;;;;;;;;;2207983;59;2274;-76
2022/07/19 05:04:04;;;;;;;;;;;;;;;;;;2209176;59;1255;-78
2022/07/19 05:06:37;;;;;;;;;;;;;;;;;;2208607;59;2364;-78
2022/07/19 05:09:10;;;;;;;;;;;;;;;;;;2208382;59;2427;-76
2022/07/19 05:11:43;;;;;;;;;;;;;;;;;;2208250;59;2399;-76
2022/07/19 05:14:16;;;;;;;;;;;;;;;;;;2208448;59;2621;-76
2022/07/19 05:16:52;;;;;;;;;;;;;;;;;;2209438;59;2672;-76
2022/07/19 05:19:25;;;;;;;;;;;;;;;;;;2209192;59;1959;-77
2022/07/19 05:21:58;;;;;;;;;;;;;;;;;;2209868;59;1303;-76
2022/07/19 05:24:32;;;;;;;;;;;;;;;;;;2209690;67;1053;-77
2022/07/19 05:27:05;;;;;;;;;;;;;;;;;;2208695;59;1798;-78
2022/07/19 05:29:38;;;;;;;;;;;;;;;;;;2209127;59;1723;-76
2022/07/19 05:32:14;;;;;;;;;;;;;;;;;;2209077;59;2292;-76
2022/07/19 05:34:47;;;;;;;;;;;;;;;;;;2209185;59;2435;-76
2022/07/19 05:37:20;;;;;;;;;;;;;;;;;;2209018;59;2440;-76
2022/07/19 05:39:53;;;;;;;;;;;;;;;;;;2209783;59;1787;-76
2022/07/19 05:42:26;;;;;;;;;;;;;;;;;;2210222;59;1491;-76
2022/07/19 05:44:59;;;;;;;;;;;;;;;;;;2209731;59;1349;-76
2022/07/19 05:47:35;;;;;;;;;;;;;;;;;;2209220;67;1206;-77
2022/07/19 05:50:09;;;;;;;;;;;;;;;;;;2209186;59;1204;-76
2022/07/19 05:52:42;;;;;;;;;;;;;;;;;;2206085;67;2087;-77
2022/07/19 05:55:15;;;;;;;;;;;;;;;;;;2209666;67;1920;-77
2022/07/19 05:57:48;;;;;;;;;;;;;;;;;;2210024;67;1120;-76
2022/07/19 06:00:21;;;;;;;;;;;;;;;;;;2209773;67;1241;-76
2022/07/19 06:02:57;;;;;;;;;;;;;;;;;;2209798;59;1179;-78
2022/07/19 06:05:30;;;;;;;;;;;;;;;;;;2209080;67;1088;-79
2022/07/19 06:08:03;;;;;;;;;;;;;;;;;;2209794;67;1257;-78
2022/07/19 06:10:37;;;;;;;;;;;;;;;;;;2209662;59;1391;-77
2022/07/19 06:13:10;;;;;;;;;;;;;;;;;;2209001;59;1253;-76
2022/07/19 06:15:43;;;;;;;;;;;;;;;;;;2209547;67;1992;-79
2022/07/19 06:18:19;;;;;;;;;;;;;;;;;;2209340;67;1253;-76
2022/07/19 06:20:52;;;;;;;;;;;;;;;;;;2210131;59;1929;-76
2022/07/19 06:23:25;;;;;;;;;;;;;;;;;;2210430;67;1306;-77
2022/07/19 06:25:58;;;;;;;;;;;;;;;;;;2210347;59;1218;-76
2022/07/19 06:28:32;;;;;;;;;;;;;;;;;;2210323;67;1112;-77
2022/07/19 06:31:05;;;;;;;;;;;;;;;;;;2210089;67;1210;-77
2022/07/19 06:33:40;;;;;;;;;;;;;;;;;;2210077;67;1188;-77
2022/07/19 06:36:14;;;;;;;;;;;;;;;;;;2210649;67;1971;-76
2022/07/19 06:38:48;;;;;;;;;;;;;;;;;;2209800;59;1079;-76
2022/07/19 06:41:21;;;;;;;;;;;;;;;;;;2206532;67;1812;-77
2022/07/19 06:43:54;;;;;;;;;;;;;;;;;;2210641;59;1839;-76
2022/07/19 06:46:27;;;;;;;;;;;;;;;;;;2206179;59;1737;-77
2022/07/19 06:49:04;;;;;;;;;;;;;;;;;;2210468;59;1307;-77
2022/07/19 06:51:37;;;;;;;;;;;;;;;;;;2209453;59;1323;-77
2022/07/19 06:54:10;;;;;;;;;;;;;;;;;;2210463;59;1267;-76
2022/07/19 06:56:43;;;;;;;;;;;;;;;;;;2209494;67;1980;-76
2022/07/19 06:59:16;;;;;;;;;;;;;;;;;;2210347;67;1205;-77
2022/07/19 07:01:49;;;;;;;;;;;;;;;;;;2209592;59;2314;-76
2022/07/19 07:04:25;;;;;;;;;;;;;;;;;;2209839;59;1369;-77
2022/07/19 07:06:59;;;;;;;;;;;;;;;;;;2206682;59;2104;-77
2022/07/19 07:09:32;;;;;;;;;;;;;;;;;;2208784;59;1267;-76
2022/07/19 07:12:05;;;;;;;;;;;;;;;;;;2210279;59;1496;-77
2022/07/19 07:14:38;;;;;;;;;;;;;;;;;;2209624;67;1144;-77
2022/07/19 07:17:11;;;;;;;;;;;;;;;;;;2209864;67;1927;-76
2022/07/19 07:19:47;;;;;;;;;;;;;;;;;;2205904;59;1842;-76
2022/07/19 07:22:21;;;;;;;;;;;;;;;;;;2206231;67;1260;-77
2022/07/19 07:24:54;;;;;;;;;;;;;;;;;;2210014;67;1177;-77
2022/07/19 07:27:27;;;;;;;;;;;;;;;;;;2209696;59;1265;-76
2022/07/19 07:30:00;;;;;;;;;;;;;;;;;;2209723;67;1193;-76
2022/07/19 07:32:33;;;;;;;;;;;;;;;;;;2209610;59;1266;-76
2022/07/19 07:35:10;;;;;;;;;;;;;;;;;;2208710;59;4790;-76
2022/07/19 07:37:43;;;;;;;;;;;;;;;;;;2209054;59;1946;-77
2022/07/19 07:40:16;;;;;;;;;;;;;;;;;;2209437;59;1360;-77
2022/07/19 07:42:49;;;;;;;;;;;;;;;;;;2209320;59;1211;-77
2022/07/19 07:45:22;;;;;;;;;;;;;;;;;;2209656;59;1228;-77
2022/07/19 07:47:55;;;;;;;;;;;;;;;;;;2209632;59;1178;-76
2022/07/19 07:50:31;;;;;;;;;;;;;;;;;;2209478;67;1262;-76
2022/07/19 07:53:05;;;;;;;;;;;;;;;;;;2209602;67;1066;-76
2022/07/19 07:55:39;;;;;;;;;;;;;;;;;;2209575;59;1095;-76
2022/07/19 07:58:13;;;;;;;;;;;;;;;;;;2209099;67;1944;-77
2022/07/19 08:00:46;;;;;;;;;;;;;;;;;;2209026;67;1278;-77
2022/07/19 08:03:19;;;;;;;;;;;;;;;;;;2209291;59;1334;-77
2022/07/19 08:05:57;;;;;;;;;;;;;;;;;;2208709;67;1017;-76
2022/07/19 08:08:30;;;;;;;;;;;;;;;;;;2208875;67;1233;-76
2022/07/19 08:11:03;;;;;;;;;;;;;;;;;;2209399;59;1426;-77
2022/07/19 08:13:36;;;;;;;;;;;;;;;;;;2209800;59;1712;-76
2022/07/19 08:16:09;;;;;;;;;;;;;;;;;;2210834;59;1929;-76
2022/07/19 08:18:43;;;;;;;;;;;;;;;;;;2210287;59;1830;-77
2022/07/19 08:21:18;;;;;;;;;;;;;;;;;;2205465;59;2010;-76
2022/07/19 08:23:53;;;;;;;;;;;;;;;;;;2209290;67;1069;-76
2022/07/19 08:26:26;;;;;;;;;;;;;;;;;;2210652;67;1294;-76
2022/07/19 08:28:59;;;;;;;;;;;;;;;;;;2209454;59;2491;-77
2022/07/19 08:31:33;;;;;;;;;;;;;;;;;;2210271;59;1585;-76
2022/07/19 08:34:06;;;;;;;;;;;;;;;;;;2210488;59;1438;-76
2022/07/19 08:36:42;;;;;;;;;;;;;;;;;;2209786;59;1979;-76
2022/07/19 08:39:15;;;;;;;;;;;;;;;;;;2209173;59;1557;-76
2022/07/19 08:41:48;;;;;;;;;;;;;;;;;;2210059;67;1239;-76
2022/07/19 08:44:21;;;;;;;;;;;;;;;;;;2210116;59;1261;-76
2022/07/19 08:46:55;;;;;;;;;;;;;;;;;;2209786;59;1674;-76
2022/07/19 08:49:29;;;;;;;;;;;;;;;;;;2210061;59;1357;-75
2022/07/19 08:52:05;;;;;;;;;;;;;;;;;;2209378;59;1498;-76
2022/07/19 08:54:38;;;;;;;;;;;;;;;;;;2209121;59;1193;-76
2022/07/19 09:00:00;;;;;;;;;;;;;;;;;;2210454;67;1302;-75
2022/07/19 09:02:33;;;;;;;;;;;;;;;;;;2210632;59;1248;-76
2022/07/19 09:05:08;;;;;;;;;;;;;;;;;;2209663;59;1342;-76
2022/07/19 09:07:44;;;;;;;;;;;;;;;;;;2210053;59;1270;-76
2022/07/19 09:10:18;;;;;;;;;;;;;;;;;;2209147;67;1228;-76
2022/07/19 09:13:05;;;;;;;;;;;;;;;;;;2210004;59;1759;-76
2022/07/19 09:15:43;;;;;;;;;;;;;;;;;;2209305;67;1235;-76
2022/07/19 09:18:18;;;;;;;;;;;;;;;;;;2209676;59;1937;-76
2022/07/19 09:20:52;;;;;;;;;;;;;;;;;;2209899;59;2432;-76
2022/07/19 09:23:28;;;;;;;;;;;;;;;;;;2209973;59;1377;-76
2022/07/19 09:26:02;;;;;;;;;;;;;;;;;;2209512;59;1167;-75
2022/07/19 09:28:36;;;;;;;;;;;;;;;;;;2209625;59;2585;-76
2022/07/19 09:31:09;;;;;;;;;;;;;;;;;;2209724;59;1198;-76
2022/07/19 11:02:00;;;;;;;;;;;;;;;;;;2389232;53;1774;-77
2022/07/19 11:04:34;;;;;;;;;;;;;;;;;;2204611;59;1310;-77
2022/07/19 11:07:14;;;;;;;;;;;;;;;;;;2204759;59;1203;-77
2022/07/19 11:09:55;;;;;;;;;;;;;;;;;;2205729;67;1080;-77
2022/07/19 11:12:38;;;;;;;;;;;;;;;;;;2204112;59;1427;-77
2022/07/19 11:15:12;;;;;;;;;;;;;;;;;;2202289;67;1058;-74
2022/07/19 11:25:50;;;;;;;;;;;;;;;;;;2377841;59;1507;-77
2022/07/19 11:31:16;;;;;;;;;;;;;;;;;;2206518;59;1300;-74
2022/07/19 11:33:50;;;;;;;;;;;;;;;;;;2208502;59;1431;-74
2022/07/19 11:36:23;;;;;;;;;;;;;;;;;;2208973;59;1263;-74
2022/07/19 11:38:58;;;;;;;;;;;;;;;;;;2208430;67;1945;-74
2022/07/19 11:41:35;;;;;;;;;;;;;;;;;;2205753;67;1227;-75
2022/07/19 11:44:10;;;;;;;;;;;;;;;;;;2205605;67;1184;-74
2022/07/19 11:46:45;;;;;;;;;;;;;;;;;;2205581;59;1222;-75
2022/07/19 11:49:18;;;;;;;;;;;;;;;;;;2205885;67;1179;-75
2022/07/19 11:52:00;;;;;;;;;;;;;;;;;;2205615;67;1204;-74
2022/07/19 11:54:33;;;;;;;;;;;;;;;;;;2205867;59;1270;-74
2022/07/19 11:57:24;;;;;;;;;;;;;;;;;;2205942;67;1941;-75
2022/07/19 11:59:57;;;;;;;;;;;;;;;;;;2206019;67;1263;-74
2022/07/19 12:02:30;;;;;;;;;;;;;;;;;;2205485;67;1215;-75
2022/07/19 12:05:11;;;;;;;;;;;;;;;;;;2205959;59;1219;-75
2022/07/19 12:07:47;;;;;;;;;;;;;;;;;;2205652;59;1126;-75
2022/07/19 12:10:37;;;;;;;;;;;;;;;;;;2205641;67;1266;-74
2022/07/19 12:13:13;;;;;;;;;;;;;;;;;;2205641;59;1249;-75
2022/07/19 12:15:55;;;;;;;;;;;;;;;;;;2205177;59;1069;-74
2022/07/19 12:18:43;;;;;;;;;;;;;;;;;;2205918;59;2230;-74
2022/07/19 12:21:17;;;;;;;;;;;;;;;;;;2205310;59;1932;-75
2022/07/19 12:24:09;;;;;;;;;;;;;;;;;;2205394;67;1073;-75
2022/07/19 12:26:43;;;;;;;;;;;;;;;;;;2205188;67;1044;-75
2022/07/19 12:29:24;;;;;;;;;;;;;;;;;;2205231;59;1213;-75
2022/07/19 12:31:58;;;;;;;;;;;;;;;;;;2205076;59;1168;-75
2022/07/19 12:34:32;;;;;;;;;;;;;;;;;;2205421;67;1148;-75
2022/07/19 12:37:19;;;;;;;;;;;;;;;;;;2205460;67;1928;-75
2022/07/19 12:40:05;;;;;;;;;;;;;;;;;;2205895;67;1212;-75
2022/07/19 12:42:39;;;;;;;;;;;;;;;;;;2206457;67;1065;-75
2022/07/19 12:45:16;;;;;;;;;;;;;;;;;;2206684;67;1170;-75
2022/07/19 12:47:50;;;;;;;;;;;;;;;;;;2205969;59;1080;-75
2022/07/19 12:50:25;;;;;;;;;;;;;;;;;;2206567;67;1270;-75
2022/07/19 12:52:59;;;;;;;;;;;;;;;;;;2206395;59;1101;-75
2022/07/19 12:55:34;;;;;;;;;;;;;;;;;;2205570;67;1160;-75
2022/07/19 12:58:08;;;;;;;;;;;;;;;;;;2206183;67;1996;-75
2022/07/19 13:00:44;;;;;;;;;;;;;;;;;;2206244;67;1153;-75
2022/07/19 13:03:17;;;;;;;;;;;;;;;;;;2205998;59;1266;-75
2022/07/19 13:05:50;;;;;;;;;;;;;;;;;;2205884;59;1087;-75
2022/07/19 13:08:24;;;;;;;;;;;;;;;;;;2206166;67;1213;-75
2022/07/19 13:10:58;;;;;;;;;;;;;;;;;;2206181;59;1376;-75
2022/07/19 13:13:31;;;;;;;;;;;;;;;;;;2206021;59;1809;-75
2022/07/19 13:16:07;;;;;;;;;;;;;;;;;;2205790;67;1212;-75
2022/07/19 13:18:40;;;;;;;;;;;;;;;;;;2205615;59;2189;-74
2022/07/19 13:21:14;;;;;;;;;;;;;;;;;;2201863;59;1935;-74
2022/07/19 13:23:47;;;;;;;;;;;;;;;;;;2205649;67;1123;-75
2022/07/19 13:26:20;;;;;;;;;;;;;;;;;;2205872;59;1205;-75
2022/07/19 13:28:53;;;;;;;;;;;;;;;;;;2205761;59;1303;-75
2022/07/19 13:31:29;;;;;;;;;;;;;;;;;;2205625;59;1259;-75
2022/07/19 13:34:02;;;;;;;;;;;;;;;;;;2202104;67;1411;-75
2022/07/19 13:36:35;;;;;;;;;;;;;;;;;;2206311;67;1008;-75
2022/07/19 13:39:08;;;;;;;;;;;;;;;;;;2206583;67;1980;-75
2022/07/19 13:41:41;;;;;;;;;;;;;;;;;;2206155;67;1209;-74
2022/07/19 13:44:14;;;;;;;;;;;;;;;;;;2206627;67;1248;-75
2022/07/19 13:46:51;;;;;;;;;;;;;;;;;;2206181;67;1065;-75
2022/07/19 13:49:24;;;;;;;;;;;;;;;;;;2206444;67;1216;-75
2022/07/19 13:51:57;;;;;;;;;;;;;;;;;;2206052;59;1165;-75
2022/07/19 13:54:30;;;;;;;;;;;;;;;;;;2206012;67;1198;-75
2022/07/19 13:57:04;;;;;;;;;;;;;;;;;;2205988;59;1286;-75
2022/07/19 13:59:37;;;;;;;;;;;;;;;;;;2205506;67;1941;-75
2022/07/19 14:02:14;;;;;;;;;;;;;;;;;;2205787;59;1151;-75
2022/07/19 14:04:47;;;;;;;;;;;;;;;;;;2206011;59;1236;-75
2022/07/19 14:07:20;;;;;;;;;;;;;;;;;;2206113;59;1162;-75
2022/07/19 14:09:54;;;;;;;;;;;;;;;;;;2205639;59;1281;-74
2022/07/19 14:12:27;;;;;;;;;;;;;;;;;;2206284;59;1425;-75
2022/07/19 14:15:00;;;;;;;;;;;;;;;;;;2205495;67;1133;-75
2022/07/19 14:17:36;;;;;;;;;;;;;;;;;;2205907;67;2309;-74
2022/07/19 14:20:09;;;;;;;;;;;;;;;;;;2205298;59;1935;-75
2022/07/19 14:22:43;;;;;;;;;;;;;;;;;;2205361;67;1105;-75
2022/07/19 14:25:16;;;;;;;;;;;;;;;;;;2205839;59;1149;-75
2022/07/19 14:27:49;;;;;;;;;;;;;;;;;;2205677;67;1021;-75
2022/07/19 14:30:24;;;;;;;;;;;;;;;;;;2205979;59;1343;-75
2022/07/19 14:33:00;;;;;;;;;;;;;;;;;;2206795;59;1120;-75
2022/07/19 14:35:33;;;;;;;;;;;;;;;;;;2207538;59;1088;-75
2022/07/19 14:38:06;;;;;;;;;;;;;;;;;;2205717;59;1932;-76
2022/07/19 14:40:40;;;;;;;;;;;;;;;;;;2206644;59;2171;-75
2022/07/19 14:43:13;;;;;;;;;;;;;;;;;;2205595;59;1463;-75
2022/07/19 14:45:46;;;;;;;;;;;;;;;;;;2206965;59;1077;-75
2022/07/19 14:48:22;;;;;;;;;;;;;;;;;;2207022;59;1214;-75
2022/07/19 14:50:55;;;;;;;;;;;;;;;;;;2206660;59;1239;-75
2022/07/19 14:53:28;;;;;;;;;;;;;;;;;;2207398;67;1222;-75
2022/07/19 14:56:01;;;;;;;;;;;;;;;;;;2206549;59;1310;-75
2022/07/19 14:58:34;;;;;;;;;;;;;;;;;;2207156;59;1933;-75
2022/07/19 15:01:07;;;;;;;;;;;;;;;;;;2206278;67;1014;-74
2022/07/19 15:03:43;;;;;;;;;;;;;;;;;;2207263;67;1277;-75
2022/07/19 15:06:16;;;;;;;;;;;;;;;;;;2205721;59;2498;-74
2022/07/19 15:08:49;;;;;;;;;;;;;;;;;;2206960;59;1322;-75
2022/07/19 15:11:23;;;;;;;;;;;;;;;;;;2207464;59;1390;-75
2022/07/19 15:13:56;;;;;;;;;;;;;;;;;;2206551;59;1144;-74
2022/07/19 15:16:29;;;;;;;;;;;;;;;;;;2207712;67;1224;-75
2022/07/19 15:19:05;;;;;;;;;;;;;;;;;;2206222;59;2006;-74
2022/07/19 15:21:39;;;;;;;;;;;;;;;;;;2207317;59;1269;-75
2022/07/19 15:24:12;;;;;;;;;;;;;;;;;;2205931;67;1114;-74
2022/07/19 15:26:45;;;;;;;;;;;;;;;;;;2207594;59;1086;-74
2022/07/19 15:29:18;;;;;;;;;;;;;;;;;;2207221;67;1390;-75
2022/07/19 15:31:51;;;;;;;;;;;;;;;;;;2206412;67;1124;-74
2022/07/19 15:34:27;;;;;;;;;;;;;;;;;;2206790;67;1300;-74
2022/07/19 15:37:00;;;;;;;;;;;;;;;;;;2206786;59;1238;-74
2022/07/19 15:39:33;;;;;;;;;;;;;;;;;;2206699;59;1979;-74
2022/07/19 15:42:07;;;;;;;;;;;;;;;;;;2206096;59;1089;-74
2022/07/19 15:44:40;;;;;;;;;;;;;;;;;;2206694;59;1173;-74
2022/07/19 15:47:13;;;;;;;;;;;;;;;;;;2206074;67;1160;-74
2022/07/19 15:49:49;;;;;;;;;;;;;;;;;;2206326;59;1215;-74
2022/07/19 15:52:22;;;;;;;;;;;;;;;;;;2205941;59;1235;-75
2022/07/19 15:54:55;;;;;;;;;;;;;;;;;;2206678;67;1230;-74
2022/07/19 15:57:28;;;;;;;;;;;;;;;;;;2206788;67;1220;-75
2022/07/19 16:00:01;;;;;;;;;;;;;;;;;;2205946;67;1930;-74
2022/07/19 16:02:34;;;;;;;;;;;;;;;;;;2206480;59;1261;-75
2022/07/19 16:05:12;;;;;;;;;;;;;;;;;;2205735;67;1144;-75
2022/07/19 16:07:45;;;;;;;;;;;;;;;;;;2206030;59;1255;-74
2022/07/19 16:10:18;;;;;;;;;;;;;;;;;;2205826;67;1184;-75
2022/07/19 16:12:51;;;;;;;;;;;;;;;;;;2206570;59;1734;-74
2022/07/19 16:15:25;;;;;;;;;;;;;;;;;;2206517;67;1243;-74
2022/07/19 16:17:58;;;;;;;;;;;;;;;;;;2206279;67;1140;-75
2022/07/19 16:20:34;;;;;;;;;;;;;;;;;;2206228;59;2132;-75
2022/07/19 16:23:07;;;;;;;;;;;;;;;;;;2205902;59;1121;-74
2022/07/19 16:25:41;;;;;;;;;;;;;;;;;;2206545;67;1168;-74
2022/07/19 16:28:14;;;;;;;;;;;;;;;;;;2205472;59;1196;-75
2022/07/19 16:30:47;;;;;;;;;;;;;;;;;;2206419;59;1173;-75
2022/07/19 16:33:20;;;;;;;;;;;;;;;;;;2205696;67;1243;-75
2022/07/19 16:35:56;;;;;;;;;;;;;;;;;;2206055;67;1100;-75
2022/07/19 16:38:29;;;;;;;;;;;;;;;;;;2205932;67;1969;-75
2022/07/19 16:41:02;;;;;;;;;;;;;;;;;;2205581;67;1291;-74
2022/07/19 16:43:35;;;;;;;;;;;;;;;;;;2205600;67;1188;-74
2022/07/19 16:46:08;;;;;;;;;;;;;;;;;;2205782;59;1042;-74
2022/07/19 16:48:44;;;;;;;;;;;;;;;;;;2205736;67;1249;-75
2022/07/19 16:51:19;;;;;;;;;;;;;;;;;;2205553;59;1278;-75
2022/07/19 16:53:53;;;;;;;;;;;;;;;;;;2205964;67;1098;-75
2022/07/19 16:56:26;;;;;;;;;;;;;;;;;;2205988;67;1228;-75
2022/07/19 16:58:59;;;;;;;;;;;;;;;;;;2206226;67;1936;-75
2022/07/19 17:01:32;;;;;;;;;;;;;;;;;;2205577;67;1144;-75
2022/07/19 17:04:05;;;;;;;;;;;;;;;;;;2205503;59;1189;-75
2022/07/19 17:06:41;;;;;;;;;;;;;;;;;;2205393;67;1198;-75
2022/07/19 17:09:14;;;;;;;;;;;;;;;;;;2205701;59;1226;-75
2022/07/19 17:11:47;;;;;;;;;;;;;;;;;;2205588;59;1327;-75
2022/07/19 17:14:21;;;;;;;;;;;;;;;;;;2205656;67;1254;-74
2022/07/19 17:16:54;;;;;;;;;;;;;;;;;;2205741;67;1160;-75
2022/07/19 17:19:27;;;;;;;;;;;;;;;;;;2205262;59;1969;-74
2022/07/19 17:22:03;;;;;;;;;;;;;;;;;;2205370;67;1319;-74
2022/07/19 17:24:36;;;;;;;;;;;;;;;;;;2205561;59;1165;-74
2022/07/19 17:27:09;;;;;;;;;;;;;;;;;;2205469;67;1131;-75
2022/07/19 17:29:42;;;;;;;;;;;;;;;;;;2208182;53;3624;-65
2022/07/19 17:32:17;;;;;;;;;;;;;;;;;;2205825;67;1193;-65
2022/07/19 17:34:50;;;;;;;;;;;;;;;;;;2206206;67;1239;-66
2022/07/19 17:37:26;;;;;;;;;;;;;;;;;;2206251;67;1099;-65
2022/07/19 17:39:59;;;;;;;;;;;;;;;;;;2205802;67;1973;-66
2022/07/19 17:42:32;;;;;;;;;;;;;;;;;;2206458;67;1037;-64
2022/07/19 17:45:06;;;;;;;;;;;;;;;;;;2206069;67;1224;-64
2022/07/19 17:47:39;;;;;;;;;;;;;;;;;;2206269;67;1117;-66
2022/07/19 17:50:13;;;;;;;;;;;;;;;;;;2206034;67;1177;-66
2022/07/19 17:52:49;;;;;;;;;;;;;;;;;;2205924;67;1146;-65
2022/07/19 17:55:22;;;;;;;;;;;;;;;;;;2206249;67;1299;-66
2022/07/19 17:57:56;;;;;;;;;;;;;;;;;;2206294;67;1186;-66
2022/07/19 18:00:29;;;;;;;;;;;;;;;;;;2206253;67;1983;-66
2022/07/19 18:03:02;;;;;;;;;;;;;;;;;;2206149;59;1307;-64
2022/07/19 18:05:37;;;;;;;;;;;;;;;;;;2205818;67;1202;-65
2022/07/19 18:08:13;;;;;;;;;;;;;;;;;;2206328;67;1157;-65
2022/07/19 18:10:46;;;;;;;;;;;;;;;;;;2206868;59;1434;-63
2022/07/19 18:13:19;;;;;;;;;;;;;;;;;;2206154;59;1282;-63
2022/07/19 18:15:52;;;;;;;;;;;;;;;;;;2206059;59;1213;-64
2022/07/19 18:18:26;;;;;;;;;;;;;;;;;;2206468;67;1317;-65
2022/07/19 18:20:59;;;;;;;;;;;;;;;;;;2206664;59;2034;-64
2022/07/19 18:23:35;;;;;;;;;;;;;;;;;;2206121;67;1186;-65
2022/07/19 18:26:08;;;;;;;;;;;;;;;;;;2207099;67;1226;-65
2022/07/19 18:28:41;;;;;;;;;;;;;;;;;;2206815;67;1136;-66
2022/07/19 18:31:14;;;;;;;;;;;;;;;;;;2206653;59;1226;-66
2022/07/19 18:33:48;;;;;;;;;;;;;;;;;;2206905;67;1189;-64
2022/07/19 18:36:21;;;;;;;;;;;;;;;;;;2207003;67;1353;-65
2022/07/19 18:38:57;;;;;;;;;;;;;;;;;;2206850;67;1104;-61
2022/07/19 18:41:30;;;;;;;;;;;;;;;;;;2206060;67;1942;-64
2022/07/19 18:44:03;;;;;;;;;;;;;;;;;;2207140;67;1196;-62
2022/07/19 18:46:36;;;;;;;;;;;;;;;;;;2206626;67;1127;-63
2022/07/19 18:49:10;;;;;;;;;;;;;;;;;;2203373;67;2012;-65
2022/07/19 18:51:44;;;;;;;;;;;;;;;;;;2206963;60;1118;-61
2022/07/19 18:54:19;;;;;;;;;;;;;;;;;;2207426;67;1277;-60
2022/07/19 18:56:53;;;;;;;;;;;;;;;;;;2207471;67;1151;-63
2022/07/19 18:59:26;;;;;;;;;;;;;;;;;;2206766;67;1925;-62
2022/07/19 19:01:59;;;;;;;;;;;;;;;;;;2207637;67;1188;-65
2022/07/19 19:04:32;;;;;;;;;;;;;;;;;;2206841;59;1248;-64
2022/07/19 19:07:05;;;;;;;;;;;;;;;;;;2207320;67;1091;-65
2022/07/19 19:09:41;;;;;;;;;;;;;;;;;;2207114;67;1191;-66
2022/07/19 19:12:14;;;;;;;;;;;;;;;;;;2208053;59;1435;-64
2022/07/19 19:14:48;;;;;;;;;;;;;;;;;;2207088;59;1919;-65
2022/07/19 19:17:21;;;;;;;;;;;;;;;;;;2207568;67;1128;-64
2022/07/19 19:19:54;;;;;;;;;;;;;;;;;;2206999;59;2092;-62
2022/07/19 19:22:27;;;;;;;;;;;;;;;;;;2207019;67;1243;-64
2022/07/19 19:25:03;;;;;;;;;;;;;;;;;;2207206;67;1304;-63
2022/07/19 19:27:36;;;;;;;;;;;;;;;;;;2206749;67;1202;-62
2022/07/19 19:30:10;;;;;;;;;;;;;;;;;;2207351;59;1073;-63
2022/07/19 19:32:43;;;;;;;;;;;;;;;;;;2205837;67;1148;-63
2022/07/19 19:35:17;;;;;;;;;;;;;;;;;;2207071;67;1252;-61
2022/07/19 19:37:50;;;;;;;;;;;;;;;;;;2207129;67;1160;-63
2022/07/19 19:40:26;;;;;;;;;;;;;;;;;;2206868;67;1944;-63
2022/07/19 19:43:00;;;;;;;;;;;;;;;;;;2207034;67;1084;-63